Time;durP1;ratioP1;P1;durP2;ratioP2;P2;SDS_P1;SDS_P2;PMS_P1;PMS_P2;Temp;Humidity;BMP_temperature;BMP_pressure;BME280_temperature;BME280_humidity;BME280_pressure;Samples;Min_cycle;Max_cycle;Signal;HPM_P1;HPM_P2
2023/03/11 00:00:54;;;;;;;0.00;0.00;;;0.00;100.00;;;;;;4992523;28;20057;-77
2023/03/11 00:03:24;;;;;;;0.00;0.00;;;0.00;100.00;;;;;;5006464;28;20054;-76
2023/03/11 00:05:52;;;;;;;0.00;0.00;;;-0.10;100.00;;;;;;5009024;28;20053;-76
2023/03/11 00:08:22;;;;;;;0.00;0.00;;;-0.10;100.00;;;;;;5003596;28;20049;-76
2023/03/11 00:10:54;;;;;;;0.00;0.00;;;0.00;100.00;;;;;;4987984;28;20058;-76
2023/03/11 00:13:21;;;;;;;0.00;0.00;;;0.00;100.00;;;;;;4998568;28;20046;-77
2023/03/11 00:15:50;;;;;;;0.00;0.00;;;-0.10;100.00;;;;;;4997348;28;20052;-76
2023/03/11 00:18:17;;;;;;;0.00;0.00;;;0.00;100.00;;;;;;5003176;28;20064;-76
2023/03/11 00:20:45;;;;;;;0.00;0.00;;;-0.10;100.00;;;;;;5009205;28;20073;-78
2023/03/11 00:23:13;;;;;;;0.00;0.00;;;-0.10;100.00;;;;;;5003771;28;20757;-77
2023/03/11 00:25:43;;;;;;;0.00;0.00;;;-0.10;100.00;;;;;;4999720;28;20049;-77
2023/03/11 00:28:10;;;;;;;0.00;0.00;;;-0.10;100.00;;;;;;5001728;28;20053;-78
2023/03/11 00:30:39;;;;;;;0.00;0.00;;;0.00;100.00;;;;;;5001193;28;20097;-77
2023/03/11 00:33:07;;;;;;;0.00;0.00;;;0.00;100.00;;;;;;4997078;28;20054;-77
2023/03/11 00:35:35;;;;;;;0.00;0.00;;;0.00;100.00;;;;;;5004480;28;20052;-77
2023/03/11 00:38:06;;;;;;;0.00;0.00;;;0.00;100.00;;;;;;5005348;28;20058;-76
2023/03/11 00:40:35;;;;;;;0.00;0.00;;;0.00;100.00;;;;;;5007826;28;20049;-78
2023/03/11 00:43:02;;;;;;;0.00;0.00;;;0.00;100.00;;;;;;5007786;28;20056;-76
2023/03/11 00:45:30;;;;;;;0.00;0.00;;;0.00;100.00;;;;;;4991126;28;20052;-76
2023/03/11 00:47:57;;;;;;;0.00;0.00;;;-0.10;100.00;;;;;;5012308;28;20457;-76
2023/03/11 00:50:28;;;;;;;0.00;0.00;;;0.00;100.00;;;;;;5004248;28;20519;-77
2023/03/11 00:52:56;;;;;;;0.00;0.00;;;-0.10;100.00;;;;;;4986578;28;20050;-77
2023/03/11 00:55:36;;;;;;;0.00;0.00;;;0.00;100.00;;;;;;4960828;23;20065;-74
2023/03/11 00:58:05;;;;;;;0.00;0.00;;;0.00;100.00;;;;;;4964442;28;20054;-73
2023/03/11 01:00:32;;;;;;;0.00;0.00;;;-0.10;100.00;;;;;;4961644;28;20060;-74
2023/03/11 01:02:59;;;;;;;0.00;0.00;;;0.00;100.00;;;;;;4961618;28;20055;-74
2023/03/11 01:05:29;;;;;;;0.00;0.00;;;-0.10;100.00;;;;;;4963080;28;20706;-73
2023/03/11 01:07:56;;;;;;;0.00;0.00;;;-0.10;100.00;;;;;;4961937;28;20055;-73
2023/03/11 01:10:23;;;;;;;0.00;0.00;;;-0.10;100.00;;;;;;4964356;28;20492;-73
2023/03/11 01:12:50;;;;;;;0.00;0.00;;;-0.10;100.00;;;;;;4958513;28;20051;-73
2023/03/11 01:15:28;;;;;;;0.00;0.00;;;-0.10;100.00;;;;;;4964487;28;20058;-73
2023/03/11 01:17:56;;;;;;;0.00;0.00;;;-0.10;100.00;;;;;;4963697;28;20059;-73
2023/03/11 01:20:23;;;;;;;0.00;0.00;;;-0.10;100.00;;;;;;4961091;28;20066;-73
2023/03/11 01:22:53;;;;;;;0.00;0.00;;;-0.10;100.00;;;;;;4976840;28;20149;-73
2023/03/11 01:25:23;;;;;;;0.00;0.00;;;-0.10;100.00;;;;;;4976405;23;20102;-76
2023/03/11 01:27:50;;;;;;;0.00;0.00;;;-0.10;100.00;;;;;;4998011;28;20050;-76
2023/03/11 01:30:20;;;;;;;0.00;0.00;;;-0.10;100.00;;;;;;4995187;28;20125;-76
2023/03/11 01:32:47;;;;;;;0.00;0.00;;;-0.10;100.00;;;;;;4985644;28;20041;-76
2023/03/11 01:35:16;;;;;;;0.00;0.00;;;-0.10;100.00;;;;;;4994949;28;20049;-77
2023/03/11 01:37:44;;;;;;;0.00;0.00;;;-0.10;100.00;;;;;;4998577;28;20050;-76
2023/03/11 01:40:24;;;;;;;0.00;0.00;;;-0.10;100.00;;;;;;5006080;28;20055;-76
2023/03/11 01:42:50;;;;;;;0.00;0.00;;;-0.10;100.00;;;;;;4981942;28;20051;-76
2023/03/11 01:45:34;;;;;;;0.00;0.00;;;-0.10;100.00;;;;;;4998993;28;20054;-73
2023/03/11 01:48:20;;;;;;;0.00;0.00;;;-0.10;100.00;;;;;;4976520;28;20062;-72
2023/03/11 01:50:49;;;;;;;0.00;0.00;;;-0.20;100.00;;;;;;4999308;28;20666;-72
2023/03/11 01:53:17;;;;;;;0.00;0.00;;;-0.10;100.00;;;;;;5007073;28;20453;-72
2023/03/11 01:55:45;;;;;;;0.00;0.00;;;-0.20;100.00;;;;;;4984172;28;20054;-78
2023/03/11 01:58:17;;;;;;;0.00;0.00;;;-0.20;100.00;;;;;;5001361;28;20056;-77
2023/03/11 02:00:45;;;;;;;0.00;0.00;;;-0.20;100.00;;;;;;5007697;28;20050;-78
2023/03/11 02:03:22;;;;;;;0.00;0.00;;;-0.20;100.00;;;;;;4990885;28;20581;-77
2023/03/11 02:05:52;;;;;;;0.00;0.00;;;-0.20;100.00;;;;;;5016232;28;20049;-77
2023/03/11 02:08:19;;;;;;;0.00;0.00;;;-0.10;100.00;;;;;;4990546;28;20058;-77
2023/03/11 02:10:48;;;;;;;0.00;0.00;;;-0.20;100.00;;;;;;4995742;28;20049;-76
2023/03/11 02:13:16;;;;;;;0.00;0.00;;;-0.20;100.00;;;;;;5000763;28;20046;-76
2023/03/11 02:15:43;;;;;;;0.00;0.00;;;-0.10;100.00;;;;;;5009684;28;20509;-77
2023/03/11 02:18:13;;;;;;;0.00;0.00;;;-0.10;100.00;;;;;;4984746;28;20054;-76
2023/03/11 02:20:50;;;;;;;0.00;0.00;;;-0.20;100.00;;;;;;4986211;23;20038;-73
2023/03/11 02:23:20;;;;;;;0.00;0.00;;;-0.10;100.00;;;;;;4984401;28;20088;-73
2023/03/11 02:26:00;;;;;;;0.00;0.00;;;-0.20;100.00;;;;;;4985611;28;20054;-73
2023/03/11 02:28:30;;;;;;;0.00;0.00;;;-0.20;100.00;;;;;;4982136;28;20047;-73
2023/03/11 02:30:57;;;;;;;0.00;0.00;;;-0.20;100.00;;;;;;4980346;28;20057;-73
2023/03/11 02:33:28;;;;;;;0.00;0.00;;;-0.20;100.00;;;;;;4981844;28;20055;-73
2023/03/11 02:35:56;;;;;;;0.00;0.00;;;-0.10;100.00;;;;;;4983959;28;20050;-73
2023/03/11 02:38:23;;;;;;;0.00;0.00;;;-0.20;100.00;;;;;;4981444;28;20146;-74
2023/03/11 02:40:55;;;;;;;0.00;0.00;;;-0.20;100.00;;;;;;4981878;28;20061;-73
2023/03/11 02:43:38;;;;;;;0.00;0.00;;;-0.20;100.00;;;;;;4982936;28;20526;-73
2023/03/11 02:46:09;;;;;;;0.00;0.00;;;-0.20;100.00;;;;;;4980212;28;20065;-73
2023/03/11 02:48:37;;;;;;;0.00;0.00;;;-0.20;100.00;;;;;;4980530;28;20166;-73
2023/03/11 02:51:07;;;;;;;0.00;0.00;;;-0.20;100.00;;;;;;4984032;28;20047;-73
2023/03/11 02:53:46;;;;;;;0.00;0.00;;;-0.20;100.00;;;;;;4983151;28;20061;-73
2023/03/11 02:56:13;;;;;;;0.00;0.00;;;-0.20;100.00;;;;;;4984763;28;20141;-73
2023/03/11 03:01:09;;;;;;;0.00;0.00;;;-0.20;100.00;;;;;;4968641;28;20058;-76
2023/03/11 03:04:26;;;;;;;0.00;0.00;;;-0.20;100.00;;;;;;4977285;23;20054;-73
2023/03/11 03:06:53;;;;;;;0.00;0.00;;;-0.20;100.00;;;;;;4983218;28;20080;-73
2023/03/11 03:09:20;;;;;;;0.00;0.00;;;-0.20;100.00;;;;;;4980761;28;20054;-72
2023/03/11 03:11:46;;;;;;;0.00;0.00;;;-0.20;100.00;;;;;;4978121;28;20498;-72
2023/03/11 03:14:13;;;;;;;0.00;0.00;;;-0.20;100.00;;;;;;4975140;28;20076;-72
2023/03/11 03:16:40;;;;;;;0.00;0.00;;;-0.20;100.00;;;;;;4980984;28;20056;-72
2023/03/11 03:19:07;;;;;;;0.00;0.00;;;-0.20;100.00;;;;;;4977576;28;20746;-73
2023/03/11 03:21:34;;;;;;;0.00;0.00;;;-0.20;100.00;;;;;;4978256;28;20154;-73
2023/03/11 03:24:02;;;;;;;0.00;0.00;;;-0.20;100.00;;;;;;4979260;28;20054;-72
2023/03/11 03:26:30;;;;;;;0.00;0.00;;;-0.20;100.00;;;;;;4994586;28;20045;-72
2023/03/11 03:32:42;;;;;;;0.00;0.00;;;-0.20;100.00;;;;;;4962782;28;20141;-72
2023/03/11 03:35:13;;;;;;;0.00;0.00;;;-0.20;100.00;;;;;;4971526;23;20042;-76
2023/03/11 03:37:40;;;;;;;0.00;0.00;;;-0.20;100.00;;;;;;4988398;28;20114;-77
2023/03/11 03:40:08;;;;;;;0.00;0.00;;;-0.20;100.00;;;;;;4981678;28;20109;-76
2023/03/11 03:42:37;;;;;;;0.00;0.00;;;-0.20;100.00;;;;;;4989300;28;20074;-76
2023/03/11 03:45:06;;;;;;;0.00;0.00;;;-0.20;100.00;;;;;;4988057;28;20046;-77
2023/03/11 03:47:34;;;;;;;0.00;0.00;;;-0.20;100.00;;;;;;4979225;28;20510;-76
2023/03/11 03:50:06;;;;;;;0.00;0.00;;;-0.20;100.00;;;;;;4982905;28;20862;-76
2023/03/11 03:52:34;;;;;;;0.00;0.00;;;-0.20;100.00;;;;;;4994760;28;20043;-77
2023/03/11 03:55:02;;;;;;;0.00;0.00;;;-0.20;100.00;;;;;;4989043;28;20487;-77
2023/03/11 03:57:29;;;;;;;0.00;0.00;;;-0.20;100.00;;;;;;4992173;28;20284;-77
2023/03/11 03:59:55;;;;;;;0.00;0.00;;;-0.20;100.00;;;;;;4994199;28;20837;-76
2023/03/11 04:02:23;;;;;;;0.10;0.10;;;-0.20;100.00;;;;;;4988307;28;20054;-76
2023/03/11 04:04:50;;;;;;;0.00;0.00;;;-0.20;100.00;;;;;;4993634;28;20758;-76
2023/03/11 04:07:17;;;;;;;0.00;0.00;;;-0.20;100.00;;;;;;4986862;28;20054;-76
2023/03/11 04:09:45;;;;;;;0.00;0.00;;;-0.20;100.00;;;;;;4979795;28;20042;-76
2023/03/11 04:12:16;;;;;;;0.00;0.00;;;-0.10;100.00;;;;;;4990276;28;20054;-76
2023/03/11 04:14:43;;;;;;;0.00;0.00;;;-0.20;100.00;;;;;;4986332;28;20132;-76
2023/03/11 04:17:16;;;;;;;0.00;0.00;;;-0.20;100.00;;;;;;4978875;28;20066;-76
2023/03/11 04:19:43;;;;;;;0.00;0.00;;;-0.20;100.00;;;;;;4982632;28;20133;-76
2023/03/11 04:22:10;;;;;;;0.00;0.00;;;-0.20;100.00;;;;;;4979751;28;20153;-76
2023/03/11 04:24:37;;;;;;;0.00;0.00;;;-0.20;100.00;;;;;;4987295;28;20050;-77
2023/03/11 04:27:03;;;;;;;0.00;0.00;;;-0.20;100.00;;;;;;4990478;28;20138;-77
2023/03/11 04:29:30;;;;;;;0.00;0.00;;;-0.20;100.00;;;;;;4985706;28;20058;-76
2023/03/11 04:31:57;;;;;;;0.00;0.00;;;-0.30;99.50;;;;;;4978913;28;20042;-76
2023/03/11 04:34:24;;;;;;;0.00;0.00;;;-0.30;99.40;;;;;;4985527;28;20065;-76
2023/03/11 04:36:52;;;;;;;0.00;0.00;;;-0.30;99.30;;;;;;4980741;28;20065;-76
2023/03/11 04:39:20;;;;;;;0.00;0.00;;;-0.30;99.00;;;;;;4982154;28;20591;-76
2023/03/11 04:41:47;;;;;;;0.00;0.00;;;-0.40;99.30;;;;;;4984565;28;20080;-76
2023/03/11 04:44:14;;;;;;;0.00;0.00;;;-0.40;98.00;;;;;;4984079;28;20097;-77
2023/03/11 04:46:40;;;;;;;0.00;0.00;;;-0.40;98.40;;;;;;4982121;28;20050;-76
2023/03/11 04:52:38;;;;;;;0.00;0.00;;;-0.50;97.70;;;;;;4996264;23;20080;-73
2023/03/11 04:55:06;;;;;;;0.00;0.00;;;-0.50;97.30;;;;;;5003994;28;20053;-73
2023/03/11 04:57:34;;;;;;;0.00;0.00;;;-0.50;97.80;;;;;;4996515;28;20061;-72
2023/03/11 05:10:22;;;;;;;0.00;0.00;;;-0.50;96.60;;;;;;5402050;23;20062;-76
2023/03/11 05:12:49;;;;;;;0.00;0.00;;;-0.50;96.60;;;;;;5002756;28;20050;-76
2023/03/11 05:15:17;;;;;;;0.00;0.00;;;-0.40;96.10;;;;;;4998772;28;20072;-72
2023/03/11 05:17:44;;;;;;;0.00;0.00;;;-0.40;96.70;;;;;;4993997;28;20533;-72
2023/03/11 05:22:46;;;;;;;0.00;0.00;;;-0.40;97.50;;;;;;4993435;28;20089;-71
2023/03/11 05:25:13;;;;;;;0.00;0.00;;;-0.50;97.50;;;;;;5225175;22;20082;-72
2023/03/11 05:27:40;;;;;;;0.00;0.00;;;-0.40;97.60;;;;;;4961940;23;20062;-76
2023/03/11 05:30:07;;;;;;;0.00;0.00;;;-0.40;97.80;;;;;;4976175;23;20115;-72
2023/03/11 05:32:34;;;;;;;0.00;0.00;;;-0.40;98.10;;;;;;5003965;28;20108;-71
2023/03/11 05:35:01;;;;;;;0.00;0.00;;;-0.40;98.40;;;;;;4982021;28;20058;-72
2023/03/11 05:37:31;;;;;;;0.00;0.00;;;-0.40;98.40;;;;;;4999424;28;20562;-72
2023/03/11 05:39:58;;;;;;;0.00;0.00;;;-0.50;99.10;;;;;;4984958;28;20046;-72
2023/03/11 05:42:26;;;;;;;0.00;0.00;;;-0.50;99.30;;;;;;4988300;28;20459;-72
2023/03/11 05:44:55;;;;;;;0.00;0.00;;;-0.50;99.00;;;;;;5005101;28;20149;-72
2023/03/11 05:47:22;;;;;;;0.00;0.00;;;-0.50;99.20;;;;;;4978806;28;20089;-71
2023/03/11 05:49:49;;;;;;;0.00;0.00;;;-0.50;99.50;;;;;;5002608;28;20133;-72
2023/03/11 05:52:16;;;;;;;0.00;0.00;;;-0.40;99.90;;;;;;5003084;28;20065;-72
2023/03/11 05:54:47;;;;;;;0.00;0.00;;;-0.40;99.40;;;;;;4996893;28;20047;-72
2023/03/11 05:57:15;;;;;;;0.00;0.00;;;-0.40;99.30;;;;;;4998554;28;20058;-72
2023/03/11 05:59:43;;;;;;;0.00;0.00;;;-0.40;99.20;;;;;;4987330;28;20045;-71
2023/03/11 06:02:09;;;;;;;0.00;0.00;;;-0.30;99.20;;;;;;5002346;28;20057;-72
2023/03/11 06:04:36;;;;;;;0.00;0.00;;;-0.30;99.40;;;;;;4983821;28;20316;-72
2023/03/11 06:07:03;;;;;;;0.00;0.00;;;-0.30;99.60;;;;;;4984620;28;20513;-71
2023/03/11 06:09:30;;;;;;;0.00;0.00;;;-0.30;99.80;;;;;;4985938;28;20499;-71
2023/03/11 06:11:57;;;;;;;0.00;0.00;;;-0.30;100.00;;;;;;5001820;28;20046;-71
2023/03/11 06:14:24;;;;;;;0.00;0.00;;;-0.40;100.00;;;;;;4976567;28;20133;-71
2023/03/11 06:16:51;;;;;;;0.00;0.00;;;-0.40;100.00;;;;;;4989928;28;20769;-71
2023/03/11 06:19:18;;;;;;;0.00;0.00;;;-0.40;100.00;;;;;;5001697;28;20194;-71
2023/03/11 06:21:46;;;;;;;0.00;0.00;;;-0.40;100.00;;;;;;5007296;28;20053;-71
2023/03/11 06:24:13;;;;;;;0.00;0.00;;;-0.30;100.00;;;;;;4982901;28;20056;-71
2023/03/11 06:26:39;;;;;;;0.30;0.30;;;-0.30;100.00;;;;;;4999316;28;20133;-71
2023/03/11 06:29:12;;;;;;;0.00;0.00;;;-0.20;100.00;;;;;;4987220;28;20052;-71
2023/03/11 06:31:41;;;;;;;0.00;0.00;;;-0.20;100.00;;;;;;4998663;28;20045;-70
2023/03/11 06:34:11;;;;;;;0.00;0.00;;;-0.10;100.00;;;;;;5001716;28;21950;-70
2023/03/11 06:36:41;;;;;;;0.00;0.00;;;-0.10;100.00;;;;;;4980597;28;20127;-70
2023/03/11 06:39:12;;;;;;;0.00;0.00;;;-0.10;100.00;;;;;;5003342;28;20049;-70
2023/03/11 06:41:39;;;;;;;0.00;0.00;;;-0.10;100.00;;;;;;4992124;28;20093;-70
2023/03/11 06:44:06;;;;;;;0.00;0.00;;;-0.10;100.00;;;;;;5006836;28;20074;-70
2023/03/11 06:46:32;;;;;;;0.00;0.00;;;-0.10;100.00;;;;;;4994565;28;20050;-70
2023/03/11 06:48:59;;;;;;;0.00;0.00;;;-0.10;100.00;;;;;;4987026;28;20050;-71
2023/03/11 06:51:26;;;;;;;0.00;0.00;;;0.00;100.00;;;;;;4987494;28;20053;-70
2023/03/11 06:53:53;;;;;;;0.00;0.00;;;0.00;100.00;;;;;;4987380;28;20057;-71
2023/03/11 06:56:21;;;;;;;0.10;0.10;;;0.00;100.00;;;;;;4987597;28;20045;-71
2023/03/11 06:58:49;;;;;;;0.00;0.00;;;0.10;100.00;;;;;;5001247;28;20050;-72
2023/03/11 07:01:18;;;;;;;0.00;0.00;;;0.10;100.00;;;;;;5004935;28;20053;-70
2023/03/11 07:03:47;;;;;;;0.00;0.00;;;0.10;100.00;;;;;;5003433;28;20161;-76
2023/03/11 07:06:20;;;;;;;0.00;0.00;;;0.20;100.00;;;;;;4984427;28;20046;-70
2023/03/11 07:08:49;;;;;;;0.00;0.00;;;0.30;98.60;;;;;;5001232;28;20073;-70
2023/03/11 07:11:22;;;;;;;0.00;0.00;;;0.20;98.10;;;;;;4998252;28;20149;-70
2023/03/11 07:13:49;;;;;;;0.00;0.00;;;0.10;98.60;;;;;;4993583;28;20085;-69
2023/03/11 07:16:19;;;;;;;0.00;0.00;;;0.10;98.60;;;;;;4998441;28;20063;-71
2023/03/11 07:18:47;;;;;;;0.00;0.00;;;0.00;98.60;;;;;;4982866;28;20077;-69
2023/03/11 07:21:16;;;;;;;0.00;0.00;;;0.00;99.20;;;;;;4984140;28;20677;-70
2023/03/11 07:23:43;;;;;;;0.00;0.00;;;0.00;99.50;;;;;;5000094;28;20050;-70
2023/03/11 07:26:13;;;;;;;0.00;0.00;;;0.00;100.00;;;;;;4991310;28;20561;-72
2023/03/11 07:28:41;;;;;;;0.40;0.40;;;0.00;99.70;;;;;;4987660;28;20137;-70
2023/03/11 07:31:11;;;;;;;0.00;0.00;;;0.00;99.60;;;;;;4982146;28;20057;-71
2023/03/11 07:33:37;;;;;;;0.00;0.00;;;0.00;100.00;;;;;;5000937;28;20057;-73
2023/03/11 07:36:12;;;;;;;0.00;0.00;;;0.00;100.00;;;;;;5003192;28;20053;-71
2023/03/11 07:38:40;;;;;;;0.00;0.00;;;0.50;100.00;;;;;;5000920;28;20049;-70
2023/03/11 07:41:10;;;;;;;0.00;0.00;;;1.00;99.30;;;;;;5002842;28;20060;-70
2023/03/11 07:43:38;;;;;;;0.00;0.00;;;1.50;97.10;;;;;;4984577;28;20057;-71
2023/03/11 07:46:17;;;;;;;0.00;0.00;;;1.60;95.20;;;;;;4997027;28;20050;-70
2023/03/11 07:48:44;;;;;;;0.00;0.00;;;1.80;93.90;;;;;;4992198;28;20841;-70
2023/03/11 07:51:14;;;;;;;0.00;0.00;;;2.30;91.30;;;;;;5002316;28;20058;-71
2023/03/11 07:53:41;;;;;;;0.00;0.00;;;2.00;91.40;;;;;;5003358;28;20045;-71
2023/03/11 07:56:11;;;;;;;0.00;0.00;;;1.80;93.00;;;;;;5002133;28;20049;-71
2023/03/11 07:58:38;;;;;;;0.00;0.00;;;2.40;92.30;;;;;;4996504;28;20548;-71
2023/03/11 08:01:07;;;;;;;0.00;0.00;;;2.70;88.10;;;;;;4984103;28;20469;-71
2023/03/11 08:03:34;;;;;;;0.00;0.00;;;2.50;88.50;;;;;;4985154;28;20573;-71
2023/03/11 08:06:03;;;;;;;0.00;0.00;;;2.50;91.50;;;;;;4993069;28;20089;-71
2023/03/11 08:08:29;;;;;;;0.00;0.00;;;2.70;87.80;;;;;;4994239;28;20152;-71
2023/03/11 08:10:56;;;;;;;0.00;0.00;;;2.40;86.30;;;;;;5003879;28;20050;-71
2023/03/11 08:13:23;;;;;;;0.00;0.00;;;1.90;88.70;;;;;;4979441;28;20053;-70
2023/03/11 08:15:50;;;;;;;0.00;0.00;;;1.80;90.30;;;;;;4999112;28;20124;-71
2023/03/11 08:18:17;;;;;;;0.00;0.00;;;1.70;89.90;;;;;;4988736;28;20054;-70
2023/03/11 08:20:44;;;;;;;0.00;0.00;;;1.80;91.40;;;;;;4998911;28;20068;-71
2023/03/11 08:23:12;;;;;;;0.00;0.00;;;1.70;92.30;;;;;;4996640;28;20065;-71
2023/03/11 08:25:39;;;;;;;0.00;0.00;;;1.80;91.10;;;;;;5000517;28;20053;-71
2023/03/11 08:28:08;;;;;;;0.00;0.00;;;1.80;91.30;;;;;;4990403;28;20054;-71
2023/03/11 08:30:35;;;;;;;0.10;0.10;;;1.80;90.90;;;;;;4978676;28;20049;-71
2023/03/11 08:33:02;;;;;;;0.00;0.00;;;1.60;91.10;;;;;;4984375;28;20056;-71
2023/03/11 08:35:31;;;;;;;0.00;0.00;;;1.50;91.40;;;;;;4994790;28;20053;-71
2023/03/11 08:37:58;;;;;;;0.00;0.00;;;1.50;91.50;;;;;;4985207;28;20454;-70
2023/03/11 08:40:25;;;;;;;0.00;0.00;;;1.30;91.20;;;;;;4984706;28;20704;-70
2023/03/11 08:42:55;;;;;;;0.00;0.00;;;1.20;92.80;;;;;;5001430;28;20140;-71
2023/03/11 08:45:22;;;;;;;0.00;0.00;;;1.20;93.40;;;;;;4982549;28;20063;-71
2023/03/11 08:47:48;;;;;;;0.00;0.00;;;1.10;93.60;;;;;;4997501;28;20050;-71
2023/03/11 08:50:17;;;;;;;0.00;0.00;;;1.10;93.40;;;;;;5000668;28;20057;-71
2023/03/11 08:52:44;;;;;;;0.00;0.00;;;1.10;93.90;;;;;;4998424;28;20052;-70
2023/03/11 08:55:17;;;;;;;0.98;0.22;;;1.10;92.80;;;;;;4982113;28;20061;-70
2023/03/11 08:57:44;;;;;;;0.00;0.00;;;1.10;93.60;;;;;;4981554;28;20045;-70
2023/03/11 09:00:12;;;;;;;0.00;0.00;;;1.00;93.30;;;;;;4999435;28;20060;-70
2023/03/11 09:02:40;;;;;;;0.00;0.00;;;1.00;92.90;;;;;;5001911;28;20132;-70
2023/03/11 09:05:07;;;;;;;0.00;0.00;;;0.90;93.00;;;;;;5002998;28;20077;-70
2023/03/11 09:07:34;;;;;;;0.00;0.00;;;0.90;94.00;;;;;;4997513;28;20060;-70
2023/03/11 09:10:01;;;;;;;0.00;0.00;;;0.90;94.40;;;;;;4997953;28;20053;-70
2023/03/11 09:12:29;;;;;;;0.00;0.00;;;1.00;94.80;;;;;;4986612;28;20077;-70
2023/03/11 09:14:56;;;;;;;0.00;0.00;;;1.10;94.80;;;;;;5005174;28;20045;-70
2023/03/11 09:17:23;;;;;;;0.98;0.98;;;1.20;94.20;;;;;;5001958;28;20148;-70
2023/03/11 09:19:50;;;;;;;0.00;0.00;;;1.40;93.70;;;;;;4988250;28;20076;-70
2023/03/11 09:22:16;;;;;;;0.00;0.00;;;1.50;93.40;;;;;;5001617;28;20061;-70
2023/03/11 09:24:43;;;;;;;0.00;0.00;;;1.50;92.10;;;;;;5004927;28;20049;-77
2023/03/11 09:27:11;;;;;;;0.00;0.00;;;1.70;94.70;;;;;;5001158;28;20065;-77
2023/03/11 09:29:38;;;;;;;0.90;0.90;;;2.60;90.50;;;;;;4996355;28;20081;-76
2023/03/11 09:32:05;;;;;;;0.00;0.00;;;3.30;88.10;;;;;;5004719;28;20101;-77
2023/03/11 09:34:32;;;;;;;0.00;0.00;;;4.60;85.00;;;;;;4993449;28;20045;-77
2023/03/11 09:37:00;;;;;;;0.00;0.00;;;6.00;81.00;;;;;;5013699;28;20378;-76
2023/03/11 09:39:27;;;;;;;0.00;0.00;;;6.80;75.90;;;;;;5012615;28;20056;-77
2023/03/11 09:42:02;;;;;;;0.00;0.00;;;7.00;70.30;;;;;;5012609;28;20053;-78
2023/03/11 09:44:47;;;;;;;0.00;0.00;;;6.40;71.40;;;;;;5011746;28;20046;-79
2023/03/11 09:47:37;;;;;;;0.00;0.00;;;6.00;73.70;;;;;;5008581;28;20048;-78
2023/03/11 09:50:22;;;;;;;0.00;0.00;;;5.90;72.20;;;;;;5008605;28;20057;-80
2023/03/11 09:53:01;;;;;;;0.00;0.00;;;5.70;75.00;;;;;;4986706;28;20054;-81
2023/03/11 09:55:33;;;;;;;0.00;0.00;;;6.20;73.00;;;;;;5025578;28;20050;-83
2023/03/11 09:58:07;;;;;;;0.10;0.10;;;6.50;73.00;;;;;;5011265;28;20054;-83
2023/03/11 10:00:34;;;;;;;0.00;0.00;;;6.70;71.30;;;;;;5012027;28;20053;-83
2023/03/11 10:03:02;;;;;;;0.00;0.00;;;7.60;70.30;;;;;;5012744;28;20089;-85
2023/03/11 10:05:29;;;;;;;0.00;0.00;;;8.60;67.30;;;;;;5011438;28;20064;-84
2023/03/11 10:08:10;;;;;;;0.00;0.00;;;8.80;65.70;;;;;;4993325;28;20835;-83
2023/03/11 10:10:48;;;;;;;0.10;0.10;;;9.20;65.20;;;;;;5006864;28;20046;-79
2023/03/11 10:13:45;;;;;;;0.00;0.00;;;10.00;63.30;;;;;;4989684;28;20046;-82
2023/03/11 10:16:23;;;;;;;0.00;0.00;;;9.90;59.20;;;;;;4987944;28;20049;-85
2023/03/11 10:19:07;;;;;;;0.00;0.00;;;9.90;57.50;;;;;;5003918;28;20050;-83
2023/03/11 10:21:47;;;;;;;0.17;0.17;;;10.10;57.80;;;;;;5009199;28;20441;-81
2023/03/11 10:24:32;;;;;;;0.10;0.10;;;9.50;59.20;;;;;;4993933;28;20050;-82
2023/03/11 10:27:05;;;;;;;0.00;0.00;;;8.50;61.50;;;;;;5022827;28;20451;-81
2023/03/11 10:29:41;;;;;;;0.00;0.00;;;7.00;65.40;;;;;;4991305;28;21391;-80
2023/03/11 10:32:45;;;;;;;0.00;0.00;;;6.30;68.30;;;;;;5007817;28;20050;-80
2023/03/11 10:35:22;;;;;;;0.00;0.00;;;7.20;70.80;;;;;;4959309;28;20108;-79
2023/03/11 10:38:17;;;;;;;0.00;0.00;;;7.10;64.60;;;;;;4993402;28;20075;-78
2023/03/11 10:40:46;;;;;;;0.00;0.00;;;6.50;69.20;;;;;;5006143;28;20415;-79
2023/03/11 10:43:27;;;;;;;0.00;0.00;;;7.50;69.30;;;;;;4992143;28;20046;-77
2023/03/11 10:45:54;;;;;;;0.00;0.00;;;7.70;66.90;;;;;;4987525;28;20054;-77
2023/03/11 10:48:23;;;;;;;0.00;0.00;;;7.20;64.60;;;;;;4987756;28;20060;-77
2023/03/11 10:51:13;;;;;;;0.00;0.00;;;6.70;65.40;;;;;;4999868;28;20895;-78
2023/03/11 10:53:47;;;;;;;0.00;0.00;;;6.00;73.40;;;;;;5000676;28;20042;-77
2023/03/11 10:56:28;;;;;;;0.00;0.00;;;6.30;71.70;;;;;;4983607;28;20045;-76
2023/03/11 10:58:56;;;;;;;0.00;0.00;;;6.60;68.10;;;;;;4985554;28;20754;-76
2023/03/11 11:01:23;;;;;;;0.10;0.10;;;6.10;66.10;;;;;;5003697;28;20056;-75
2023/03/11 11:03:54;;;;;;;0.00;0.00;;;5.90;73.10;;;;;;5001858;28;20062;-80
2023/03/11 11:06:21;;;;;;;0.00;0.00;;;6.60;67.70;;;;;;5000093;28;20042;-78
2023/03/11 11:08:48;;;;;;;0.00;0.00;;;6.70;70.20;;;;;;4994613;28;20057;-80
2023/03/11 11:11:23;;;;;;;0.00;0.00;;;6.70;64.10;;;;;;5005262;28;20045;-76
2023/03/11 11:13:59;;;;;;;0.00;0.00;;;6.60;65.80;;;;;;5001408;28;20487;-78
2023/03/11 11:16:27;;;;;;;0.00;0.00;;;6.70;67.80;;;;;;4999604;28;20132;-77
2023/03/11 11:19:11;;;;;;;0.00;0.00;;;8.30;64.50;;;;;;4986616;28;20477;-76
2023/03/11 11:21:44;;;;;;;6.40;3.08;;;8.20;64.90;;;;;;4985062;28;20050;-75
2023/03/11 11:24:19;;;;;;;10.50;5.72;;;8.50;62.40;;;;;;4998939;28;20060;-75
2023/03/11 11:27:05;;;;;;;;;;;8.60;59.80;;;;;;5003854;28;20599;-75
2023/03/11 11:29:33;;;;;;;13.48;4.93;;;8.40;60.60;;;;;;4982143;28;19929;-75
2023/03/11 11:32:33;;;;;;;5.68;3.88;;;8.90;61.20;;;;;;4985670;28;20038;-75
2023/03/11 11:35:01;;;;;;;6.50;4.10;;;8.70;60.60;;;;;;5003879;28;20045;-77
2023/03/11 11:37:31;;;;;;;13.05;4.20;;;9.20;55.90;;;;;;5003176;28;21803;-75
2023/03/11 11:40:14;;;;;;;10.00;4.40;;;9.70;57.80;;;;;;5012556;28;20097;-79
2023/03/11 11:43:03;;;;;;;8.88;3.67;;;11.00;57.30;;;;;;4984537;28;20045;-82
2023/03/11 11:45:39;;;;;;;7.90;3.65;;;10.50;52.90;;;;;;5004679;28;20701;-77
2023/03/11 11:48:30;;;;;;;9.25;3.63;;;9.70;57.80;;;;;;5004560;28;20474;-78
2023/03/11 11:51:00;;;;;;;4.32;3.20;;;10.10;53.10;;;;;;4999891;28;20054;-77
2023/03/11 11:53:47;;;;;;;7.57;3.33;;;8.90;57.80;;;;;;4984445;28;20060;-77
2023/03/11 11:56:14;;;;;;;8.32;3.50;;;9.10;57.70;;;;;;4984068;28;20057;-76
2023/03/11 11:58:41;;;;;;;5.28;3.08;;;8.70;58.00;;;;;;5001133;28;20057;-77
2023/03/11 12:01:20;;;;;;;4.32;2.45;;;9.00;60.50;;;;;;5001707;28;20061;-77
2023/03/11 12:04:14;;;;;;;4.15;2.50;;;9.50;52.00;;;;;;4999394;28;20764;-77
2023/03/11 12:06:56;;;;;;;3.92;2.50;;;7.80;54.90;;;;;;4999616;28;20049;-76
2023/03/11 12:09:31;;;;;;;5.82;3.00;;;7.40;61.40;;;;;;4999287;28;20564;-77
2023/03/11 12:12:24;;;;;;;6.53;3.03;;;9.30;57.30;;;;;;5001141;28;20045;-77
2023/03/11 12:15:38;;;;;;;4.68;2.47;;;11.60;53.30;;;;;;4980709;28;20050;-77
2023/03/11 12:18:19;;;;;;;3.22;1.90;;;10.00;50.40;;;;;;4921626;29;20711;-77
2023/03/11 12:20:53;;;;;;;3.85;1.73;;;9.50;55.20;;;;;;5016743;28;20647;-76
2023/03/11 12:23:26;;;;;;;4.40;1.98;;;10.00;54.60;;;;;;5002187;28;20054;-76
2023/03/11 12:26:11;;;;;;;4.75;2.28;;;10.00;53.70;;;;;;5004237;28;20164;-76
2023/03/11 12:28:51;;;;;;;2.03;1.50;;;10.30;53.70;;;;;;4998045;28;20054;-76
2023/03/11 12:31:20;;;;;;;5.13;1.65;;;10.50;53.30;;;;;;4998945;28;20072;-77
2023/03/11 12:34:02;;;;;;;7.65;1.92;;;11.90;50.90;;;;;;5002558;28;20054;-76
2023/03/11 12:36:34;;;;;;;6.85;2.05;;;12.20;47.70;;;;;;4988812;28;20056;-76
2023/03/11 12:39:04;;;;;;;3.60;1.60;;;12.40;50.40;;;;;;4985147;28;20490;-76
2023/03/11 12:41:35;;;;;;;4.53;1.70;;;12.40;48.70;;;;;;4991952;28;20426;-76
2023/03/11 12:44:22;;;;;;;5.75;1.65;;;12.40;48.50;;;;;;4999129;28;20052;-75
2023/03/11 12:46:58;;;;;;;3.70;2.03;;;12.60;47.40;;;;;;4984648;28;20140;-75
2023/03/11 12:49:42;;;;;;;6.25;1.83;;;12.10;46.40;;;;;;4981369;28;20057;-75
2023/03/11 12:52:12;;;;;;;4.40;1.33;;;12.70;48.40;;;;;;4985916;28;20046;-76
2023/03/11 12:54:45;;;;;;;2.20;1.30;;;12.60;46.40;;;;;;4991935;28;20062;-76
2023/03/11 12:57:15;;;;;;;2.88;1.30;;;12.30;46.10;;;;;;4990307;28;20052;-75
2023/03/11 12:59:45;;;;;;;4.20;1.38;;;12.30;47.20;;;;;;4997673;28;20053;-75
2023/03/11 13:02:49;;;;;;;3.42;1.00;;;12.00;47.30;;;;;;4984967;28;20058;-75
2023/03/11 13:05:54;;;;;;;3.92;0.82;;;12.10;44.20;;;;;;4984259;28;20053;-75
2023/03/11 13:08:24;;;;;;;2.50;1.30;;;11.60;44.50;;;;;;4935525;28;20498;-75
2023/03/11 13:10:53;;;;;;;3.05;0.90;;;10.90;45.00;;;;;;5000127;28;20095;-75
2023/03/11 13:13:32;;;;;;;3.13;1.17;;;11.00;47.30;;;;;;5002813;28;20140;-75
2023/03/11 13:16:14;;;;;;;2.22;1.20;;;10.80;45.30;;;;;;5001520;28;20057;-75
2023/03/11 13:18:43;;;;;;;2.63;0.90;;;10.90;47.20;;;;;;4984377;28;20042;-75
2023/03/11 13:21:37;;;;;;;2.45;0.60;;;10.80;48.60;;;;;;4996115;28;20054;-75
2023/03/11 13:24:24;;;;;;;2.78;0.98;;;11.30;44.60;;;;;;4994639;28;20046;-75
2023/03/11 13:26:58;;;;;;;1.88;0.68;;;11.90;44.30;;;;;;4983850;28;20054;-75
2023/03/11 13:30:03;;;;;;;4.45;0.90;;;11.90;44.90;;;;;;4978093;28;20046;-75
2023/03/11 13:33:06;;;;;;;3.15;1.05;;;11.80;45.10;;;;;;4981182;28;20046;-74